Time;durP1;ratioP1;P1;durP2;ratioP2;P2;SDS_P1;SDS_P2;PMS_P1;PMS_P2;Temp;Humidity;BMP_temperature;BMP_pressure;BME280_temperature;BME280_humidity;BME280_pressure;Samples;Min_cycle;Max_cycle;Signal;HPM_P1;HPM_P2
2022/07/29 00:00:55;;;;;;;7.53;4.35;;;;;;;;;;4276341;82;28485;-85
2022/07/29 00:07:04;;;;;;;12.65;5.17;;;;;;;;;;4243143;82;28519;-84
2022/07/29 00:13:05;;;;;;;8.83;4.45;;;;;;;;;;4249016;84;28442;-85
2022/07/29 00:19:12;;;;;;;9.63;4.20;;;;;;;;;;4229258;83;28473;-83
2022/07/29 00:25:19;;;;;;;6.90;4.30;;;;;;;;;;4281441;82;28944;-83
2022/07/29 00:31:20;;;;;;;10.00;4.00;;;;;;;;;;4238337;82;28525;-85
2022/07/29 00:37:21;;;;;;;7.50;3.50;;;;;;;;;;4219288;82;28487;-85
2022/07/29 00:43:21;;;;;;;7.95;3.98;;;;;;;;;;4264119;82;28505;-85
2022/07/29 00:49:22;;;;;;;6.10;3.60;;;;;;;;;;4216361;82;28517;-85
2022/07/29 00:55:23;;;;;;;9.60;3.83;;;;;;;;;;4247373;83;28532;-85
2022/07/29 01:01:24;;;;;;;7.85;3.60;;;;;;;;;;4202305;84;28464;-86
2022/07/29 01:07:26;;;;;;;5.92;3.52;;;;;;;;;;4234734;83;28530;-86
2022/07/29 01:13:27;;;;;;;6.17;3.27;;;;;;;;;;4227061;82;28492;-85
2022/07/29 01:19:33;;;;;;;6.28;3.33;;;;;;;;;;4249163;82;28458;-85
2022/07/29 01:25:42;;;;;;;7.03;3.17;;;;;;;;;;4273021;82;28561;-86
2022/07/29 01:31:45;;;;;;;5.87;2.65;;;;;;;;;;4227095;83;28528;-85
2022/07/29 01:37:50;;;;;;;4.97;2.90;;;;;;;;;;4249461;82;28524;-85
2022/07/29 01:43:53;;;;;;;6.63;3.07;;;;;;;;;;4245400;82;28537;-86
2022/07/29 01:49:56;;;;;;;5.78;3.22;;;;;;;;;;4268212;82;28504;-85
2022/07/29 01:56:03;;;;;;;5.05;3.15;;;;;;;;;;4231760;82;28494;-85
2022/07/29 02:02:09;;;;;;;5.67;3.00;;;;;;;;;;4227103;82;28475;-84
2022/07/29 02:08:18;;;;;;;4.53;2.87;;;;;;;;;;4226575;82;28492;-85
2022/07/29 02:14:24;;;;;;;5.95;3.17;;;;;;;;;;4232189;82;28534;-84
2022/07/29 02:20:26;;;;;;;5.47;2.80;;;;;;;;;;4229345;82;28559;-85
2022/07/29 02:26:28;;;;;;;8.93;2.80;;;;;;;;;;4234633;82;28464;-83
2022/07/29 02:32:29;;;;;;;5.00;2.90;;;;;;;;;;4228483;82;28494;-84
2022/07/29 02:38:50;;;;;;;5.50;3.20;;;;;;;;;;4237158;82;28515;-84
2022/07/29 02:44:57;;;;;;;4.55;2.92;;;;;;;;;;4212802;84;28487;-84
2022/07/29 02:51:03;;;;;;;6.85;2.85;;;;;;;;;;4202846;84;28573;-84
2022/07/29 02:57:24;;;;;;;7.03;3.35;;;;;;;;;;4226083;82;28498;-83
2022/07/29 03:03:31;;;;;;;7.75;2.75;;;;;;;;;;4230981;83;28580;-85
2022/07/29 03:09:38;;;;;;;6.83;3.20;;;;;;;;;;4224937;82;28479;-85
2022/07/29 03:15:41;;;;;;;5.50;3.00;;;;;;;;;;4232200;82;28523;-85
2022/07/29 03:21:48;;;;;;;5.97;2.50;;;;;;;;;;4225686;82;28477;-83
2022/07/29 03:27:56;;;;;;;7.45;2.92;;;;;;;;;;4217366;82;28472;-84
2022/07/29 03:34:05;;;;;;;4.85;2.58;;;;;;;;;;4217238;82;28582;-84
2022/07/29 03:40:08;;;;;;;6.50;3.08;;;;;;;;;;4225845;82;28542;-83
2022/07/29 03:46:17;;;;;;;5.25;2.80;;;;;;;;;;4221418;83;28492;-84
2022/07/29 03:52:24;;;;;;;5.35;2.35;;;;;;;;;;4221601;82;28492;-83
2022/07/29 03:58:30;;;;;;;6.97;2.83;;;;;;;;;;4240821;82;28461;-85
2022/07/29 04:04:37;;;;;;;5.15;2.52;;;;;;;;;;4234756;83;28466;-86
2022/07/29 04:10:38;;;;;;;6.50;2.50;;;;;;;;;;4245198;83;28485;-85
2022/07/29 04:16:44;;;;;;;4.67;2.62;;;;;;;;;;4260326;83;28538;-85
2022/07/29 04:22:52;;;;;;;3.90;2.60;;;;;;;;;;4231381;84;28504;-85
2022/07/29 04:28:58;;;;;;;3.77;2.60;;;;;;;;;;4224326;83;28526;-84
2022/07/29 04:34:59;;;;;;;;;;;;;;;;;;4125321;86;28521;-86
2022/07/29 04:41:06;;;;;;;6.03;3.25;;;;;;;;;;4138845;84;20191;-86
2022/07/29 04:47:14;;;;;;;4.50;2.17;;;;;;;;;;4107729;86;28480;-84
2022/07/29 04:53:23;;;;;;;4.85;2.27;;;;;;;;;;4112658;85;28553;-84
2022/07/29 04:59:31;;;;;;;8.65;2.62;;;;;;;;;;4127941;85;28529;-83
2022/07/29 05:05:32;;;;;;;7.42;2.92;;;;;;;;;;4136257;85;28588;-85
2022/07/29 05:11:32;;;;;;;5.37;2.85;;;;;;;;;;4117497;85;28439;-80
2022/07/29 05:17:41;;;;;;;3.60;2.58;;;;;;;;;;4076922;85;28541;-81
2022/07/29 05:23:42;;;;;;;4.97;2.30;;;;;;;;;;4095845;85;28497;-80
2022/07/29 05:29:43;;;;;;;6.58;2.75;;;;;;;;;;4114854;85;28446;-79
2022/07/29 05:35:50;;;;;;;5.70;2.90;;;;;;;;;;4115679;85;28522;-78
2022/07/29 05:41:51;;;;;;;5.95;2.77;;;;;;;;;;4031375;85;28483;-79
2022/07/29 05:47:52;;;;;;;6.80;2.87;;;;;;;;;;4167369;84;28527;-79
2022/07/29 05:53:53;;;;;;;6.08;3.05;;;;;;;;;;4156834;84;28578;-79
2022/07/29 05:59:54;;;;;;;5.62;2.70;;;;;;;;;;4157842;84;28558;-82
2022/07/29 06:05:54;;;;;;;9.35;2.75;;;;;;;;;;4095395;85;28580;-81
2022/07/29 06:11:55;;;;;;;4.37;3.10;;;;;;;;;;4116353;85;28528;-78
2022/07/29 06:18:02;;;;;;;9.05;2.85;;;;;;;;;;4117064;85;28568;-79
2022/07/29 06:24:08;;;;;;;5.25;2.95;;;;;;;;;;4076684;85;28488;-77
2022/07/29 06:30:16;;;;;;;5.33;2.70;;;;;;;;;;4092957;85;28466;-77
2022/07/29 06:36:22;;;;;;;6.20;3.00;;;;;;;;;;4027104;86;28568;-84
2022/07/29 06:42:23;;;;;;;7.05;2.83;;;;;;;;;;4164307;83;28584;-80
2022/07/29 06:48:24;;;;;;;6.42;2.80;;;;;;;;;;4251373;82;28510;-81
2022/07/29 06:54:25;;;;;;;4.33;2.40;;;;;;;;;;4242737;82;28577;-81
2022/07/29 07:00:32;;;;;;;4.83;2.80;;;;;;;;;;4250124;82;28887;-80
2022/07/29 07:06:38;;;;;;;4.30;2.95;;;;;;;;;;4246321;82;28457;-80
2022/07/29 07:12:39;;;;;;;;;;;;;;;;;;4247955;82;28456;-81
2022/07/29 07:18:46;;;;;;;6.15;2.60;;;;;;;;;;4249571;82;20260;-81
2022/07/29 07:24:52;;;;;;;5.47;3.05;;;;;;;;;;4258832;82;28453;-82
2022/07/29 07:30:58;;;;;;;6.72;3.50;;;;;;;;;;4256719;82;28492;-81
2022/07/29 07:36:59;;;;;;;6.12;3.00;;;;;;;;;;4233269;82;28464;-83
2022/07/29 07:43:00;;;;;;;6.58;3.00;;;;;;;;;;4237734;82;28591;-82
2022/07/29 07:49:01;;;;;;;6.25;2.90;;;;;;;;;;4250530;82;28485;-80
2022/07/29 07:55:08;;;;;;;4.28;2.85;;;;;;;;;;4250291;82;28485;-81
2022/07/29 08:01:09;;;;;;;5.58;3.42;;;;;;;;;;4237721;83;28876;-80
2022/07/29 08:07:16;;;;;;;5.83;3.37;;;;;;;;;;4272160;82;28556;-79
2022/07/29 08:13:17;;;;;;;4.87;2.95;;;;;;;;;;4235626;82;28548;-82
2022/07/29 08:19:18;;;;;;;6.70;3.20;;;;;;;;;;4244843;82;28475;-85
2022/07/29 08:25:25;;;;;;;7.95;2.92;;;;;;;;;;4245616;82;28531;-81
2022/07/29 08:31:34;;;;;;;;;;;;;;;;;;4246327;82;28492;-83
2022/07/29 08:37:40;;;;;;;5.90;3.20;;;;;;;;;;4245500;82;20179;-84
2022/07/29 08:43:41;;;;;;;6.12;3.00;;;;;;;;;;4261047;82;28531;-85
2022/07/29 08:49:48;;;;;;;6.37;2.98;;;;;;;;;;4252770;82;28475;-83
2022/07/29 08:55:55;;;;;;;8.15;3.47;;;;;;;;;;4252128;82;28528;-84
2022/07/29 09:02:03;;;;;;;4.47;2.80;;;;;;;;;;4228986;82;28501;-82
2022/07/29 09:08:04;;;;;;;5.10;2.92;;;;;;;;;;4234936;82;28555;-82
2022/07/29 09:14:13;;;;;;;6.22;3.20;;;;;;;;;;4260364;82;28548;-82
2022/07/29 09:20:22;;;;;;;6.62;3.45;;;;;;;;;;4259439;82;28888;-81
2022/07/29 09:26:25;;;;;;;5.72;3.02;;;;;;;;;;4258588;82;28549;-81
2022/07/29 09:32:33;;;;;;;3.98;2.72;;;;;;;;;;4255321;82;28559;-82
2022/07/29 09:38:35;;;;;;;7.15;2.70;;;;;;;;;;4246779;82;28536;-82
2022/07/29 09:44:46;;;;;;;5.22;2.90;;;;;;;;;;4250489;82;28456;-81
2022/07/29 09:50:49;;;;;;;4.08;2.50;;;;;;;;;;4243173;82;28522;-81
2022/07/29 09:56:56;;;;;;;5.90;2.70;;;;;;;;;;4244056;82;28501;-82
2022/07/29 10:03:03;;;;;;;5.00;2.80;;;;;;;;;;4259136;82;28463;-82
2022/07/29 10:09:11;;;;;;;4.62;2.50;;;;;;;;;;4246620;82;28541;-83
2022/07/29 10:15:18;;;;;;;6.85;3.02;;;;;;;;;;4236030;82;28483;-86
2022/07/29 10:21:26;;;;;;;5.75;2.65;;;;;;;;;;4229184;82;28489;-82
2022/07/29 10:27:32;;;;;;;4.55;2.80;;;;;;;;;;4233136;82;28582;-84
2022/07/29 10:33:41;;;;;;;5.08;2.83;;;;;;;;;;4211016;82;28504;-82
2022/07/29 10:39:46;;;;;;;4.92;2.58;;;;;;;;;;4075187;85;28502;-84
2022/07/29 10:45:48;;;;;;;5.27;2.90;;;;;;;;;;4261512;82;28485;-83
2022/07/29 10:51:59;;;;;;;4.45;2.65;;;;;;;;;;4239638;82;28541;-83
2022/07/29 10:58:13;;;;;;;4.92;2.65;;;;;;;;;;4246337;82;28473;-83
2022/07/29 11:04:33;;;;;;;5.47;2.72;;;;;;;;;;4257539;82;28496;-83
2022/07/29 11:10:40;;;;;;;5.60;2.52;;;;;;;;;;4253410;82;28519;-83
2022/07/29 11:23:46;;;;;;;3.10;2.80;;;;;;;;;;4250245;82;28637;-82
2022/07/29 11:29:54;;;;;;;5.87;3.12;;;;;;;;;;4266861;82;28465;-84
2022/07/29 12:31:53;;;;;;;9.40;3.50;;;;;;;;;;4245729;82;28578;-82
2022/07/29 12:38:00;;;;;;;6.55;3.00;;;;;;;;;;4262392;82;28536;-83
2022/07/29 12:44:01;;;;;;;5.55;3.20;;;;;;;;;;4249384;82;28509;-82
2022/07/29 12:50:14;;;;;;;7.55;3.50;;;;;;;;;;4249905;82;28472;-82
2022/07/29 12:56:21;;;;;;;5.25;2.98;;;;;;;;;;4254955;82;28566;-82
2022/07/29 13:02:31;;;;;;;5.45;3.08;;;;;;;;;;4263082;82;28465;-82
2022/07/29 13:08:37;;;;;;;6.03;3.52;;;;;;;;;;4263743;82;28569;-82
2022/07/29 13:14:47;;;;;;;;;;;;;;;;;;4248125;82;28493;-82
2022/07/29 13:20:52;;;;;;;6.22;2.77;;;;;;;;;;4254988;82;20208;-82
2022/07/29 13:26:58;;;;;;;5.25;2.98;;;;;;;;;;4250265;82;28469;-82
2022/07/29 13:33:05;;;;;;;5.05;2.98;;;;;;;;;;4247597;82;28535;-82
2022/07/29 13:39:06;;;;;;;7.35;3.00;;;;;;;;;;4253011;82;28497;-83
2022/07/29 13:45:14;;;;;;;5.37;2.83;;;;;;;;;;4230888;82;28493;-81
2022/07/29 13:51:20;;;;;;;6.03;2.83;;;;;;;;;;4242911;82;28529;-82
2022/07/29 13:57:27;;;;;;;4.53;2.50;;;;;;;;;;4243097;82;28453;-83
2022/07/29 14:03:34;;;;;;;4.20;2.83;;;;;;;;;;4230818;82;28499;-83
2022/07/29 14:09:43;;;;;;;8.05;3.10;;;;;;;;;;4263401;82;28524;-83
2022/07/29 14:15:44;;;;;;;5.92;3.20;;;;;;;;;;4285716;82;28535;-82
2022/07/29 14:21:45;;;;;;;6.83;2.70;;;;;;;;;;4273644;82;28461;-86
2022/07/29 14:27:46;;;;;;;4.37;2.60;;;;;;;;;;4245879;82;28580;-82
2022/07/29 14:33:47;;;;;;;4.72;2.80;;;;;;;;;;4245967;82;28477;-82
2022/07/29 14:39:54;;;;;;;4.45;2.70;;;;;;;;;;4243359;82;28480;-83
2022/07/29 14:45:55;;;;;;;4.80;2.62;;;;;;;;;;4242964;82;28524;-83
2022/07/29 14:52:02;;;;;;;4.95;2.80;;;;;;;;;;4245178;82;28528;-83
2022/07/29 14:58:09;;;;;;;4.50;3.05;;;;;;;;;;4244906;82;28454;-83
2022/07/29 15:04:17;;;;;;;5.45;2.98;;;;;;;;;;4260487;82;28472;-84
2022/07/29 15:10:23;;;;;;;5.03;2.98;;;;;;;;;;4161568;84;28492;-84
2022/07/29 15:16:30;;;;;;;5.78;2.95;;;;;;;;;;4249763;82;28505;-85
2022/07/29 15:22:37;;;;;;;4.55;3.50;;;;;;;;;;4235572;82;28497;-84
2022/07/29 15:28:38;;;;;;;6.50;2.90;;;;;;;;;;4249413;82;28485;-82
2022/07/29 15:34:45;;;;;;;6.22;3.05;;;;;;;;;;4251598;82;28675;-83
2022/07/29 15:40:46;;;;;;;4.95;3.00;;;;;;;;;;4237791;82;28478;-83
2022/07/29 15:47:07;;;;;;;5.55;2.90;;;;;;;;;;4251937;82;28508;-82
2022/07/29 15:53:14;;;;;;;4.67;3.37;;;;;;;;;;4253793;82;28550;-82
2022/07/29 15:59:15;;;;;;;;;;;;;;;;;;4263442;82;28512;-84
2022/07/29 16:05:22;;;;;;;5.25;3.12;;;;;;;;;;4250465;82;20235;-84
2022/07/29 16:11:22;;;;;;;6.75;4.05;;;;;;;;;;4247204;82;28536;-82
2022/07/29 16:17:23;;;;;;;6.33;3.42;;;;;;;;;;4251499;82;28505;-83
2022/07/29 16:23:25;;;;;;;7.17;3.98;;;;;;;;;;4227803;82;28507;-83
2022/07/29 16:29:25;;;;;;;7.22;4.17;;;;;;;;;;4247275;82;28575;-83
2022/07/29 16:35:29;;;;;;;5.80;3.75;;;;;;;;;;4245917;82;28552;-80
2022/07/29 16:41:30;;;;;;;6.78;4.40;;;;;;;;;;4251932;82;28481;-82
2022/07/29 16:47:37;;;;;;;4.95;3.92;;;;;;;;;;4252445;82;28511;-82
2022/07/29 16:53:39;;;;;;;5.85;3.40;;;;;;;;;;4254862;82;28681;-82
2022/07/29 16:59:46;;;;;;;4.12;3.50;;;;;;;;;;4252743;82;28509;-83
2022/07/29 17:05:54;;;;;;;4.08;3.10;;;;;;;;;;4256643;82;28459;-82
2022/07/29 17:11:58;;;;;;;5.85;3.42;;;;;;;;;;4240999;82;29094;-83
2022/07/29 17:18:00;;;;;;;7.05;3.80;;;;;;;;;;4274922;82;28502;-82
2022/07/29 17:24:07;;;;;;;5.30;3.72;;;;;;;;;;4260967;82;28515;-84
2022/07/29 17:30:07;;;;;;;;;;;;;;;;;;4252663;82;28512;-82
2022/07/29 17:36:23;;;;;;;6.35;3.62;;;;;;;;;;4251322;82;20255;-82
2022/07/29 17:42:25;;;;;;;4.50;3.45;;;;;;;;;;4250969;82;28512;-88
2022/07/29 17:48:27;;;;;;;6.78;4.37;;;;;;;;;;4149656;84;28547;-84
2022/07/29 17:54:32;;;;;;;6.75;4.03;;;;;;;;;;4162145;84;28593;-85
2022/07/29 18:00:33;;;;;;;6.00;4.40;;;;;;;;;;4160934;84;28531;-83
2022/07/29 18:06:34;;;;;;;8.83;4.03;;;;;;;;;;4164907;84;28629;-82
2022/07/29 18:12:35;;;;;;;5.28;3.80;;;;;;;;;;4100008;85;28502;-81
2022/07/29 18:18:36;;;;;;;5.37;3.77;;;;;;;;;;4126537;85;28515;-84
2022/07/29 18:24:37;;;;;;;5.08;3.60;;;;;;;;;;4094284;85;28549;-85
2022/07/29 18:30:40;;;;;;;4.47;3.20;;;;;;;;;;4250726;82;28520;-86
2022/07/29 18:36:41;;;;;;;3.35;2.70;;;;;;;;;;4241993;82;28550;-86
2022/07/29 18:42:42;;;;;;;4.33;2.40;;;;;;;;;;4244805;83;28453;-84
2022/07/29 18:48:43;;;;;;;4.53;2.95;;;;;;;;;;4260586;82;28543;-82
2022/07/29 18:54:50;;;;;;;3.52;2.92;;;;;;;;;;4245506;82;29448;-81
2022/07/29 19:00:51;;;;;;;4.72;2.90;;;;;;;;;;4245026;82;28509;-81
2022/07/29 19:06:52;;;;;;;5.00;3.00;;;;;;;;;;4225698;82;28520;-83
2022/07/29 19:12:53;;;;;;;4.90;2.92;;;;;;;;;;4250260;82;28485;-83
2022/07/29 19:18:54;;;;;;;5.47;3.00;;;;;;;;;;4240847;82;28466;-80
2022/07/29 19:25:00;;;;;;;3.05;2.60;;;;;;;;;;4242765;82;28533;-84
2022/07/29 19:31:03;;;;;;;3.35;2.47;;;;;;;;;;4238873;82;28485;-84
2022/07/29 19:37:10;;;;;;;2.77;2.12;;;;;;;;;;4244985;82;28508;-82
2022/07/29 19:43:11;;;;;;;3.25;2.70;;;;;;;;;;4254371;82;28533;-83
2022/07/29 19:49:12;;;;;;;4.42;2.77;;;;;;;;;;4255154;82;28473;-82
2022/07/29 19:55:13;;;;;;;3.37;2.90;;;;;;;;;;4263919;82;28536;-82
2022/07/29 20:01:15;;;;;;;4.60;3.00;;;;;;;;;;4252007;82;28497;-81
2022/07/29 20:07:23;;;;;;;4.70;2.65;;;;;;;;;;4249549;82;28649;-83
2022/07/29 20:13:24;;;;;;;5.78;3.17;;;;;;;;;;4265020;82;28461;-83
2022/07/29 20:19:25;;;;;;;3.72;3.17;;;;;;;;;;4259933;82;28582;-83
2022/07/29 20:25:26;;;;;;;4.60;3.10;;;;;;;;;;4275539;82;28483;-83
2022/07/29 20:31:26;;;;;;;3.60;3.00;;;;;;;;;;4254610;82;28512;-83
2022/07/29 20:37:27;;;;;;;4.58;2.87;;;;;;;;;;4274512;82;28497;-82
2022/07/29 20:43:28;;;;;;;8.98;3.62;;;;;;;;;;4264844;82;28503;-83
2022/07/29 20:49:29;;;;;;;4.12;3.70;;;;;;;;;;4283423;82;28508;-82
2022/07/29 20:55:31;;;;;;;4.55;3.70;;;;;;;;;;4260719;82;28551;-82
2022/07/29 21:01:31;;;;;;;5.67;3.87;;;;;;;;;;4277179;82;28492;-82
2022/07/29 21:07:32;;;;;;;5.20;4.10;;;;;;;;;;4258620;82;28512;-81
2022/07/29 21:13:39;;;;;;;7.95;3.92;;;;;;;;;;4264051;82;28551;-83
2022/07/29 21:19:40;;;;;;;5.03;4.17;;;;;;;;;;4264132;82;28487;-82
2022/07/29 21:25:44;;;;;;;7.50;4.53;;;;;;;;;;4259898;82;28552;-81
2022/07/29 21:31:46;;;;;;;7.03;4.80;;;;;;;;;;4243968;82;28519;-82
2022/07/29 21:37:47;;;;;;;6.70;4.55;;;;;;;;;;4257102;82;28476;-82
2022/07/29 21:43:48;;;;;;;5.80;4.78;;;;;;;;;;4254129;82;28573;-82
2022/07/29 21:49:50;;;;;;;5.50;4.45;;;;;;;;;;4256716;82;28578;-81
2022/07/29 21:55:52;;;;;;;6.72;5.08;;;;;;;;;;4258303;82;28481;-81
2022/07/29 22:01:53;;;;;;;6.22;4.80;;;;;;;;;;4258818;83;28454;-81
2022/07/29 22:07:54;;;;;;;9.75;6.92;;;;;;;;;;4259419;82;28464;-82
2022/07/29 22:13:55;;;;;;;11.53;7.22;;;;;;;;;;4259421;82;28508;-81
2022/07/29 22:19:57;;;;;;;10.82;7.45;;;;;;;;;;4259597;82;28532;-80
2022/07/29 22:26:04;;;;;;;7.70;6.37;;;;;;;;;;4257619;82;28500;-82
2022/07/29 22:32:05;;;;;;;8.75;6.20;;;;;;;;;;4254478;82;28500;-81
2022/07/29 22:38:06;;;;;;;8.45;6.80;;;;;;;;;;4243056;82;28537;-81
2022/07/29 22:44:07;;;;;;;12.03;6.78;;;;;;;;;;4233324;82;28540;-82
2022/07/29 22:50:08;;;;;;;9.88;6.92;;;;;;;;;;4248922;82;28535;-82
2022/07/29 22:56:09;;;;;;;9.58;6.95;;;;;;;;;;4250932;82;28474;-82
2022/07/29 23:02:10;;;;;;;10.70;7.60;;;;;;;;;;4239980;82;28552;-81
2022/07/29 23:08:11;;;;;;;9.85;7.22;;;;;;;;;;4252827;82;28503;-82
2022/07/29 23:14:12;;;;;;;10.08;6.72;;;;;;;;;;4249970;82;28564;-82
2022/07/29 23:20:13;;;;;;;7.60;5.92;;;;;;;;;;4252879;82;28620;-82
2022/07/29 23:26:15;;;;;;;9.23;6.28;;;;;;;;;;4247912;82;28520;-81
2022/07/29 23:32:16;;;;;;;9.45;6.22;;;;;;;;;;4249768;82;28532;-82
2022/07/29 23:38:17;;;;;;;8.45;5.87;;;;;;;;;;4262939;82;28544;-81
2022/07/29 23:44:23;;;;;;;6.80;5.58;;;;;;;;;;4245570;82;28560;-81
2022/07/29 23:50:30;;;;;;;6.85;4.92;;;;;;;;;;4245279;82;28473;-81
2022/07/29 23:56:31;;;;;;;6.92;5.22;;;;;;;;;;4244544;82;28477;-81
